createdAt,value
2023-02-18T00:01:11.529Z,74.87
2023-02-18T00:03:13.817Z,74.58
2023-02-18T00:05:16.768Z,74.98
2023-02-18T00:07:18.840Z,74.64
2023-02-18T00:09:20.865Z,74.05
2023-02-18T00:11:23.669Z,73.92
2023-02-18T00:13:25.951Z,73.26
2023-02-18T00:15:28.204Z,73.38
2023-02-18T00:17:30.865Z,73.16
2023-02-18T00:19:33.110Z,72.83
2023-02-18T00:21:36.934Z,72.82
2023-02-18T00:23:39.013Z,72.69
2023-02-18T00:25:41.159Z,72.90
2023-02-18T00:27:43.250Z,72.62
2023-02-18T00:29:45.603Z,72.56
2023-02-18T00:31:48.021Z,72.59
2023-02-18T00:33:50.698Z,72.27
2023-02-18T00:35:52.848Z,72.70
2023-02-18T00:37:55.123Z,72.52
2023-02-18T00:39:57.260Z,72.31
2023-02-18T00:41:59.347Z,72.80
2023-02-18T00:44:01.899Z,72.57
2023-02-18T00:46:04.237Z,72.95
2023-02-18T00:48:06.399Z,73.62
2023-02-18T00:50:09.729Z,73.93
2023-02-18T00:52:11.867Z,74.42
2023-02-18T00:54:14.066Z,74.85
2023-02-18T00:56:16.158Z,75.36
2023-02-18T00:58:18.217Z,75.62
2023-02-18T01:00:20.752Z,75.46
2023-02-18T01:02:22.852Z,75.59
2023-02-18T01:04:25.007Z,76.32
2023-02-18T01:06:27.255Z,76.44
2023-02-18T01:08:29.351Z,76.96
2023-02-18T01:10:31.554Z,77.24
2023-02-18T01:12:33.632Z,77.35
2023-02-18T01:14:35.801Z,77.21
2023-02-18T01:16:37.936Z,77.42
2023-02-18T01:18:40.635Z,77.53
2023-02-18T01:20:44.463Z,77.37
2023-02-18T01:22:46.730Z,77.65
2023-02-18T01:24:48.849Z,78.18
2023-02-18T01:26:51.032Z,78.08
2023-02-18T01:28:53.142Z,78.06
2023-02-18T01:30:55.498Z,78.16
2023-02-18T01:32:58.355Z,77.87
2023-02-18T01:35:02.813Z,77.41
2023-02-18T01:37:04.928Z,77.59
2023-02-18T01:39:07.202Z,77.18
2023-02-18T01:41:10.184Z,76.48
2023-02-18T01:43:13.213Z,76.31
2023-02-18T01:45:21.468Z,75.41
2023-02-18T01:47:23.650Z,74.64
2023-02-18T01:49:30.866Z,74.79
2023-02-18T01:51:37.822Z,74.53
2023-02-18T01:53:43.851Z,74.19
2023-02-18T01:55:48.091Z,74.48
2023-02-18T01:57:50.261Z,73.75
2023-02-18T01:59:57.400Z,73.49
2023-02-18T02:02:00.646Z,73.06
2023-02-18T02:04:02.904Z,72.74
2023-02-18T02:06:14.557Z,71.87
2023-02-18T02:08:17.277Z,71.99
2023-02-18T02:10:20.909Z,71.80
2023-02-18T02:12:26.502Z,71.09
2023-02-18T02:14:29.376Z,70.74
2023-02-18T02:16:38.014Z,70.68
2023-02-18T02:18:51.158Z,70.22
2023-02-18T02:20:59.648Z,70.11
2023-02-18T02:23:08.320Z,69.39
2023-02-18T02:25:16.590Z,70.12
2023-02-18T02:27:24.173Z,71.42
2023-02-18T02:29:32.448Z,70.70
2023-02-18T02:31:41.081Z,70.20
2023-02-18T02:33:46.706Z,69.90
2023-02-18T02:35:57.155Z,69.47
2023-02-18T02:38:06.313Z,69.60
2023-02-18T02:40:14.654Z,69.11
2023-02-18T02:42:26.370Z,68.86
2023-02-18T02:44:39.662Z,68.46
2023-02-18T02:46:46.870Z,67.81
2023-02-18T02:48:49.724Z,66.85
2023-02-18T02:50:55.302Z,66.75
2023-02-18T02:53:08.282Z,65.15
2023-02-18T02:55:11.592Z,64.68
2023-02-18T02:57:16.640Z,64.50
2023-02-18T02:59:24.943Z,63.99
2023-02-18T03:01:37.579Z,63.49
2023-02-18T03:03:40.467Z,63.24
2023-02-18T03:05:56.029Z,62.48
2023-02-18T03:08:04.324Z,61.83
2023-02-18T03:10:07.207Z,61.46
2023-02-18T03:12:23.805Z,60.91
2023-02-18T03:14:29.347Z,60.55
2023-02-18T03:16:34.823Z,59.81
2023-02-18T03:18:43.173Z,60.03
2023-02-18T03:20:51.345Z,59.53
2023-02-18T03:22:56.060Z,59.24
2023-02-18T03:25:00.280Z,59.44
2023-02-18T03:27:10.166Z,59.37
2023-02-18T03:29:15.647Z,59.29
2023-02-18T03:31:22.802Z,59.32
2023-02-18T03:33:31.475Z,59.02
2023-02-18T03:35:35.769Z,58.65
2023-02-18T03:37:43.283Z,59.58
2023-02-18T03:39:49.838Z,59.08
2023-02-18T03:41:52.024Z,58.84
2023-02-18T03:44:00.655Z,58.97
2023-02-18T03:46:04.103Z,59.46
2023-02-18T03:48:06.596Z,59.29
2023-02-18T03:50:09.684Z,59.21
2023-02-18T03:52:11.739Z,59.31
2023-02-18T03:54:14.773Z,59.36
2023-02-18T03:56:17.908Z,58.84
2023-02-18T03:58:19.888Z,58.63
2023-02-18T04:00:22.149Z,58.96
2023-02-18T04:02:24.198Z,58.79
2023-02-18T04:04:26.253Z,58.88
2023-02-18T04:06:28.235Z,59.33
2023-02-18T04:08:30.218Z,59.17
2023-02-18T04:10:32.195Z,59.12
2023-02-18T04:12:34.325Z,58.81
2023-02-18T04:14:36.327Z,59.21
2023-02-18T04:16:38.378Z,59.28
2023-02-18T04:18:40.903Z,59.27
2023-02-18T04:20:43.316Z,59.40
2023-02-18T04:22:45.289Z,59.24
2023-02-18T04:24:47.248Z,59.15
2023-02-18T04:26:49.328Z,58.97
2023-02-18T04:28:51.310Z,58.87
2023-02-18T04:30:53.351Z,59.28
2023-02-18T04:32:55.317Z,58.92
2023-02-18T04:34:57.469Z,59.42
2023-02-18T04:36:59.424Z,59.32
2023-02-18T04:39:01.372Z,59.15
2023-02-18T04:41:03.407Z,58.97
2023-02-18T04:43:05.406Z,59.29
2023-02-18T04:45:07.942Z,59.40
2023-02-18T04:47:10.807Z,59.54
2023-02-18T04:49:12.873Z,59.71
2023-02-18T04:51:15.256Z,59.68
2023-02-18T04:53:17.180Z,59.88
2023-02-18T04:55:19.363Z,59.30
2023-02-18T04:57:21.337Z,59.59
2023-02-18T04:59:23.584Z,59.59
2023-02-18T05:01:25.563Z,59.67
2023-02-18T05:03:28.417Z,59.54
2023-02-18T05:05:30.451Z,59.78
2023-02-18T05:07:32.429Z,59.93
2023-02-18T05:09:34.387Z,59.67
2023-02-18T05:11:36.929Z,60.33
2023-02-18T05:13:38.913Z,60.10
2023-02-18T05:15:41.002Z,60.31
2023-02-18T05:17:42.988Z,60.43
2023-02-18T05:19:45.100Z,60.48
2023-02-18T05:21:47.135Z,60.41
2023-02-18T05:23:49.136Z,60.55
2023-02-18T05:25:51.120Z,60.66
2023-02-18T05:27:53.093Z,60.99
2023-02-18T05:29:55.064Z,61.17
2023-02-18T05:31:57.052Z,61.12
2023-02-18T05:33:59.058Z,61.53
2023-02-18T05:36:01.152Z,61.67
2023-02-18T05:38:03.255Z,61.97
2023-02-18T05:40:06.352Z,62.36
2023-02-18T05:42:08.328Z,62.81
2023-02-18T05:44:13.305Z,63.23
2023-02-18T05:46:15.389Z,63.00
2023-02-18T05:48:17.592Z,63.79
2023-02-18T05:50:19.641Z,63.83
2023-02-18T05:52:22.182Z,64.70
2023-02-18T05:54:24.660Z,64.78
2023-02-18T05:56:26.632Z,65.26
2023-02-18T05:58:28.711Z,65.15
2023-02-18T06:00:32.010Z,65.19
2023-02-18T06:02:33.965Z,65.70
2023-02-18T06:04:35.999Z,65.49
2023-02-18T06:06:38.207Z,65.36
2023-02-18T06:08:40.337Z,66.61
2023-02-18T06:10:42.367Z,66.22
2023-02-18T06:12:44.629Z,66.17
2023-02-18T06:14:46.929Z,65.66
2023-02-18T06:16:49.155Z,65.77
2023-02-18T06:18:51.126Z,66.41
2023-02-18T06:20:53.118Z,66.31
2023-02-18T06:22:55.083Z,66.64
2023-02-18T06:24:57.031Z,66.43
2023-02-18T06:26:58.943Z,67.04
2023-02-18T06:29:00.894Z,66.90
2023-02-18T06:31:03.015Z,67.65
2023-02-18T06:33:05.439Z,66.91
2023-02-18T06:35:07.636Z,66.94
2023-02-18T06:37:09.757Z,67.53
2023-02-18T06:39:11.714Z,66.81
2023-02-18T06:41:15.110Z,66.42
2023-02-18T06:43:17.372Z,66.64
2023-02-18T06:45:19.443Z,66.14
2023-02-18T06:47:21.481Z,66.42
2023-02-18T06:49:23.411Z,66.83
2023-02-18T06:51:25.606Z,66.91
2023-02-18T06:53:27.634Z,66.71
2023-02-18T06:55:29.714Z,66.10
2023-02-18T06:57:32.010Z,66.58
2023-02-18T06:59:33.982Z,66.41
2023-02-18T07:01:37.352Z,66.82
2023-02-18T07:03:39.362Z,67.07
2023-02-18T07:05:41.898Z,66.90
2023-02-18T07:07:44.163Z,66.90
2023-02-18T07:09:46.151Z,67.37
2023-02-18T07:11:51.721Z,67.03
2023-02-18T07:13:53.656Z,67.40
2023-02-18T07:15:55.760Z,67.00
2023-02-18T07:17:57.739Z,66.38
2023-02-18T07:20:01.050Z,66.89
2023-02-18T07:22:03.009Z,66.88
2023-02-18T07:24:05.642Z,67.31
2023-02-18T07:26:10.720Z,66.91
2023-02-18T07:28:12.893Z,66.71
2023-02-18T07:30:15.546Z,66.44
2023-02-18T07:32:19.391Z,66.57
2023-02-18T07:34:21.931Z,66.95
2023-02-18T07:36:23.861Z,66.85
2023-02-18T07:38:27.220Z,66.59
2023-02-18T07:40:29.093Z,67.30
2023-02-18T07:42:30.969Z,67.12
2023-02-18T07:44:39.099Z,67.44
2023-02-18T07:46:42.040Z,67.25
2023-02-18T07:48:43.865Z,67.88
2023-02-18T07:50:46.421Z,67.36
2023-02-18T07:52:48.234Z,67.39
2023-02-18T07:54:49.989Z,67.38
2023-02-18T07:56:52.260Z,66.89
2023-02-18T07:58:54.054Z,66.60
2023-02-18T08:00:56.267Z,66.66
2023-02-18T08:02:58.279Z,66.67
2023-02-18T08:05:00.024Z,66.37
2023-02-18T08:07:01.870Z,66.06
2023-02-18T08:09:05.198Z,66.10
2023-02-18T08:11:18.649Z,66.41
2023-02-18T08:13:21.768Z,66.33
2023-02-18T08:15:23.658Z,66.40
2023-02-18T08:17:25.573Z,66.89
2023-02-18T08:19:27.449Z,66.50
2023-02-18T08:21:29.429Z,67.05
2023-02-18T08:23:31.372Z,67.28
2023-02-18T08:25:33.500Z,67.05
2023-02-18T08:27:35.361Z,67.33
2023-02-18T08:29:37.182Z,66.91
2023-02-18T08:31:39.162Z,67.31
2023-02-18T08:33:41.218Z,67.05
2023-02-18T08:35:43.311Z,66.99
2023-02-18T08:37:52.265Z,66.83
2023-02-18T08:39:56.033Z,66.98
2023-02-18T08:41:58.052Z,66.86
2023-02-18T08:44:00.058Z,66.65
2023-02-18T08:46:02.071Z,66.83
2023-02-18T08:48:19.592Z,67.18
2023-02-18T08:50:26.151Z,66.78
2023-02-18T08:52:28.315Z,66.59
2023-02-18T08:54:30.885Z,66.64
2023-02-18T08:56:33.598Z,66.79
2023-02-18T08:58:37.410Z,66.79
2023-02-18T09:00:40.824Z,66.93
2023-02-18T09:02:42.684Z,67.17
2023-02-18T09:04:44.757Z,66.84
2023-02-18T09:06:47.222Z,67.04
2023-02-18T09:08:49.280Z,66.82
2023-02-18T09:10:55.669Z,66.82
2023-02-18T09:12:57.494Z,67.54
2023-02-18T09:15:00.729Z,67.12
2023-02-18T09:17:02.590Z,67.25
2023-02-18T09:19:04.975Z,67.12
2023-02-18T09:21:09.990Z,66.99
2023-02-18T09:23:12.153Z,67.05
2023-02-18T09:25:14.018Z,67.32
2023-02-18T09:27:15.859Z,67.40
2023-02-18T09:29:19.908Z,67.10
2023-02-18T09:31:24.402Z,67.05
2023-02-18T09:33:26.241Z,66.86
2023-02-18T09:35:28.090Z,67.11
2023-02-18T09:37:30.274Z,66.57
2023-02-18T09:39:32.409Z,67.04
2023-02-18T09:41:43.302Z,67.14
2023-02-18T09:43:50.101Z,67.13
2023-02-18T09:45:53.591Z,67.02
2023-02-18T09:47:56.117Z,67.33
2023-02-18T09:50:03.975Z,67.87
2023-02-18T09:52:14.219Z,67.69
2023-02-18T09:54:19.191Z,67.50
2023-02-18T09:56:27.122Z,68.29
2023-02-18T09:58:33.822Z,67.84
2023-02-18T10:00:39.861Z,67.99
2023-02-18T10:02:48.301Z,67.88
2023-02-18T10:04:52.925Z,68.04
2023-02-18T10:06:55.690Z,67.98
2023-02-18T10:09:03.488Z,67.85
2023-02-18T10:11:16.755Z,67.83
2023-02-18T10:13:23.792Z,67.65
2023-02-18T10:15:30.460Z,68.93
2023-02-18T10:17:33.741Z,68.33
2023-02-18T10:19:39.344Z,68.22
2023-02-18T10:21:41.662Z,68.59
2023-02-18T10:23:58.058Z,68.30
2023-02-18T10:26:04.560Z,68.45
2023-02-18T10:28:09.275Z,68.73
2023-02-18T10:30:15.795Z,68.86
2023-02-18T10:32:24.296Z,69.11
2023-02-18T10:34:30.705Z,69.19
2023-02-18T10:36:40.453Z,69.34
2023-02-18T10:38:58.458Z,69.26
2023-02-18T10:41:13.905Z,69.95
2023-02-18T10:43:20.363Z,69.91
2023-02-18T10:45:23.147Z,69.84
2023-02-18T10:47:31.331Z,69.65
2023-02-18T10:49:36.892Z,69.80
2023-02-18T10:51:42.689Z,69.48
2023-02-18T10:53:49.461Z,69.94
2023-02-18T10:55:54.657Z,69.61
2023-02-18T10:57:57.979Z,69.31
2023-02-18T11:00:09.355Z,69.53
2023-02-18T11:02:17.934Z,69.29
2023-02-18T11:04:23.827Z,69.49
2023-02-18T11:06:32.821Z,69.92
2023-02-18T11:08:43.641Z,70.06
2023-02-18T11:10:47.366Z,69.88
2023-02-18T11:12:53.252Z,69.82
2023-02-18T11:15:01.526Z,69.71
2023-02-18T11:17:09.980Z,69.88
2023-02-18T11:19:18.235Z,69.96
2023-02-18T11:21:26.895Z,70.27
2023-02-18T11:23:29.114Z,71.08
2023-02-18T11:25:35.374Z,70.87
2023-02-18T11:27:44.096Z,70.27
2023-02-18T11:29:46.200Z,70.60
2023-02-18T11:31:51.975Z,70.56
2023-02-18T11:33:59.833Z,70.32
2023-02-18T11:36:15.485Z,70.81
2023-02-18T11:38:23.910Z,70.47
2023-02-18T11:40:30.259Z,70.32
2023-02-18T11:42:32.413Z,70.39
2023-02-18T11:44:38.961Z,70.31
2023-02-18T11:46:57.628Z,70.72
2023-02-18T11:49:05.899Z,70.58
2023-02-18T11:51:19.051Z,70.61
2023-02-18T11:53:25.577Z,70.47
2023-02-18T11:55:31.099Z,70.84
2023-02-18T11:57:35.669Z,70.64
2023-02-18T11:59:40.304Z,70.86
2023-02-18T12:01:48.809Z,71.09
2023-02-18T12:03:57.041Z,70.95
2023-02-18T12:06:02.776Z,70.77
2023-02-18T12:08:10.863Z,70.79
2023-02-18T12:10:17.408Z,71.28
2023-02-18T12:12:25.182Z,71.21
2023-02-18T12:14:28.163Z,71.14
2023-02-18T12:16:36.288Z,71.27
2023-02-18T12:18:49.171Z,71.69
2023-02-18T12:21:00.494Z,71.80
2023-02-18T12:23:04.404Z,71.98
2023-02-18T12:25:12.623Z,72.22
2023-02-18T12:27:21.014Z,72.09
2023-02-18T12:29:27.667Z,71.60
2023-02-18T12:31:36.122Z,71.44
2023-02-18T12:33:42.641Z,71.31
2023-02-18T12:35:47.324Z,71.44
2023-02-18T12:38:03.784Z,70.86
2023-02-18T12:40:15.342Z,70.60
2023-02-18T12:42:21.894Z,70.42
2023-02-18T12:44:27.683Z,70.40
2023-02-18T12:46:42.706Z,70.23
2023-02-18T12:48:49.276Z,70.26
2023-02-18T12:51:04.270Z,69.88
2023-02-18T12:53:09.892Z,70.44
2023-02-18T12:55:18.237Z,70.30
2023-02-18T12:57:23.996Z,70.14
2023-02-18T12:59:32.315Z,70.09
2023-02-18T13:01:44.034Z,69.95
2023-02-18T13:03:52.483Z,70.20
2023-02-18T13:06:05.755Z,70.76
2023-02-18T13:08:18.894Z,71.09
2023-02-18T13:10:25.544Z,71.60
2023-02-18T13:12:33.736Z,71.79
2023-02-18T13:14:46.064Z,72.28
2023-02-18T13:16:52.653Z,72.43
2023-02-18T13:19:03.697Z,73.99
2023-02-18T13:21:08.483Z,75.15
2023-02-18T13:23:19.026Z,74.95
2023-02-18T13:25:22.404Z,75.19
2023-02-18T13:27:32.154Z,75.21
2023-02-18T13:29:45.405Z,75.38
2023-02-18T13:32:01.803Z,75.25
2023-02-18T13:34:18.506Z,75.90
2023-02-18T13:36:31.141Z,76.32
2023-02-18T13:38:48.802Z,76.64
2023-02-18T13:40:51.681Z,76.87
2023-02-18T13:42:54.810Z,76.79
2023-02-18T13:44:57.520Z,77.02
2023-02-18T13:46:59.727Z,76.87
2023-02-18T13:49:02.928Z,77.42
2023-02-18T13:51:06.611Z,77.86
2023-02-18T13:53:09.580Z,77.70
2023-02-18T13:55:17.948Z,78.64
2023-02-18T13:57:26.058Z,78.74
2023-02-18T13:59:34.268Z,78.48
2023-02-18T14:01:41.022Z,77.94
2023-02-18T14:03:43.857Z,77.56
2023-02-18T14:05:48.465Z,78.02
2023-02-18T14:08:03.571Z,78.62
2023-02-18T14:10:26.279Z,78.00
2023-02-18T14:12:34.446Z,78.22
2023-02-18T14:14:38.785Z,77.68
2023-02-18T14:17:03.693Z,77.04
2023-02-18T14:19:28.734Z,76.22
2023-02-18T14:21:37.556Z,76.08
2023-02-18T14:23:43.521Z,75.72
2023-02-18T14:25:51.882Z,75.38
2023-02-18T14:27:57.224Z,75.00
2023-02-18T14:30:07.782Z,75.05
2023-02-18T14:32:12.414Z,75.20
2023-02-18T14:34:22.012Z,75.23
2023-02-18T14:36:33.268Z,75.78
2023-02-18T14:38:38.724Z,75.82
2023-02-18T14:40:44.368Z,75.70
2023-02-18T14:42:51.196Z,75.66
2023-02-18T14:44:53.960Z,75.47
2023-02-18T14:47:07.332Z,75.02
2023-02-18T14:49:13.894Z,74.22
2023-02-18T14:51:20.456Z,73.20
2023-02-18T14:53:25.136Z,72.99
2023-02-18T14:55:32.431Z,71.79
2023-02-18T14:57:43.802Z,71.22
2023-02-18T14:59:47.563Z,70.13
2023-02-18T15:01:53.729Z,70.02
2023-02-18T15:03:59.512Z,69.53
2023-02-18T15:06:01.456Z,69.42
2023-02-18T15:08:10.599Z,69.91
2023-02-18T15:10:15.462Z,68.79
2023-02-18T15:12:25.750Z,68.38
2023-02-18T15:14:33.728Z,68.91
2023-02-18T15:16:36.003Z,68.56
2023-02-18T15:18:42.255Z,68.46
2023-02-18T15:20:45.298Z,68.33
2023-02-18T15:22:48.324Z,68.85
2023-02-18T15:24:52.332Z,68.50
2023-02-18T15:26:57.703Z,68.84
2023-02-18T15:29:02.239Z,68.44
2023-02-18T15:31:04.601Z,68.58
2023-02-18T15:33:13.891Z,68.10
2023-02-18T15:35:18.569Z,67.71
2023-02-18T15:37:20.918Z,67.66
2023-02-18T15:39:24.140Z,67.29
2023-02-18T15:41:26.214Z,67.37
2023-02-18T15:43:28.426Z,66.86
2023-02-18T15:45:38.058Z,66.31
2023-02-18T15:47:45.765Z,64.39
2023-02-18T15:49:52.506Z,64.38
2023-02-18T15:52:00.914Z,64.07
2023-02-18T15:54:04.636Z,63.36
2023-02-18T15:56:11.226Z,62.88
2023-02-18T15:58:22.046Z,62.46
2023-02-18T16:00:30.920Z,62.12
2023-02-18T16:02:34.318Z,61.86
2023-02-18T16:04:41.587Z,61.84
2023-02-18T16:06:49.361Z,61.74
2023-02-18T16:08:57.778Z,61.88
2023-02-18T16:11:05.307Z,62.06
2023-02-18T16:13:15.628Z,61.96
2023-02-18T16:15:26.142Z,62.66
2023-02-18T16:17:30.201Z,62.35
2023-02-18T16:19:33.252Z,62.14
2023-02-18T16:21:39.020Z,62.43
2023-02-18T16:23:43.982Z,62.11
2023-02-18T16:25:49.301Z,62.30
2023-02-18T16:27:55.478Z,62.27
2023-02-18T16:30:02.936Z,62.23
2023-02-18T16:32:05.207Z,62.22
2023-02-18T16:34:07.331Z,62.27
2023-02-18T16:36:16.411Z,62.17
2023-02-18T16:38:21.274Z,62.12
2023-02-18T16:40:28.790Z,61.81
2023-02-18T16:42:30.865Z,61.63
2023-02-18T16:44:33.917Z,61.69
2023-02-18T16:46:36.977Z,62.23
2023-02-18T16:48:41.529Z,62.56
2023-02-18T16:50:43.919Z,63.08
2023-02-18T16:52:46.062Z,63.47
2023-02-18T16:54:48.390Z,63.52
2023-02-18T16:56:50.384Z,63.51
2023-02-18T16:58:52.410Z,63.47
2023-02-18T17:00:54.646Z,63.27
2023-02-18T17:03:00.120Z,63.42
2023-02-18T17:05:02.307Z,63.14
2023-02-18T17:07:09.768Z,63.34
2023-02-18T17:09:17.079Z,62.95
2023-02-18T17:11:25.881Z,62.64
2023-02-18T17:13:29.918Z,62.65
2023-02-18T17:15:35.186Z,62.00
2023-02-18T17:17:37.118Z,61.96
2023-02-18T17:19:39.234Z,61.65
2023-02-18T17:21:43.834Z,61.64
2023-02-18T17:23:46.838Z,61.45
2023-02-18T17:25:50.069Z,60.95
2023-02-18T17:27:51.954Z,60.93
2023-02-18T17:29:53.930Z,61.11
2023-02-18T17:31:57.895Z,60.58
2023-02-18T17:34:06.903Z,60.48
2023-02-18T17:36:10.504Z,60.50
2023-02-18T17:38:17.278Z,60.95
2023-02-18T17:40:22.712Z,60.89
2023-02-18T17:42:24.786Z,61.11
2023-02-18T17:44:27.982Z,61.10
2023-02-18T17:46:29.925Z,61.06
2023-02-18T17:48:32.296Z,61.21
2023-02-18T17:50:34.240Z,60.67
2023-02-18T17:52:36.444Z,60.23
2023-02-18T17:54:38.482Z,60.61
2023-02-18T17:56:40.923Z,60.15
2023-02-18T17:58:43.115Z,59.96
2023-02-18T18:00:49.387Z,60.05
2023-02-18T18:02:52.221Z,59.73
2023-02-18T18:04:55.566Z,59.50
2023-02-18T18:06:57.525Z,59.21
2023-02-18T18:08:59.643Z,59.02
2023-02-18T18:11:02.217Z,58.76
2023-02-18T18:13:09.538Z,58.81
2023-02-18T18:15:17.920Z,58.63
2023-02-18T18:17:19.869Z,58.39
2023-02-18T18:19:21.910Z,57.94
2023-02-18T18:21:31.988Z,57.78
2023-02-18T18:23:34.283Z,57.48
2023-02-18T18:25:39.903Z,57.10
2023-02-18T18:27:41.894Z,57.42
2023-02-18T18:29:43.881Z,57.55
2023-02-18T18:31:48.171Z,57.99
2023-02-18T18:33:53.688Z,57.92
2023-02-18T18:35:57.690Z,58.56
2023-02-18T18:38:00.403Z,58.18
2023-02-18T18:40:02.526Z,58.19
2023-02-18T18:42:06.728Z,58.78
2023-02-18T18:44:11.172Z,58.91
2023-02-18T18:46:13.242Z,58.88
2023-02-18T18:48:15.819Z,58.64
2023-02-18T18:50:18.898Z,58.56
2023-02-18T18:52:21.154Z,58.67
2023-02-18T18:54:23.044Z,58.76
2023-02-18T18:56:25.326Z,58.74
2023-02-18T18:58:27.540Z,58.87
2023-02-18T19:00:34.229Z,59.08
2023-02-18T19:02:36.445Z,59.31
2023-02-18T19:04:38.369Z,59.81
2023-02-18T19:06:40.453Z,59.95
2023-02-18T19:08:42.871Z,60.25
2023-02-18T19:10:48.524Z,60.26
2023-02-18T19:12:53.366Z,60.98
2023-02-18T19:14:55.482Z,61.26
2023-02-18T19:16:57.454Z,61.81
2023-02-18T19:18:59.530Z,61.69
2023-02-18T19:21:03.583Z,61.50
2023-02-18T19:23:06.054Z,61.88
2023-02-18T19:25:08.369Z,62.23
2023-02-18T19:27:10.379Z,62.64
2023-02-18T19:29:12.444Z,62.17
2023-02-18T19:31:15.196Z,63.09
2023-02-18T19:33:18.012Z,62.50
2023-02-18T19:35:20.320Z,63.03
2023-02-18T19:37:23.427Z,63.31
2023-02-18T19:39:25.553Z,63.28
2023-02-18T19:41:27.890Z,62.82
2023-02-18T19:43:29.886Z,63.09
2023-02-18T19:45:32.321Z,63.95
2023-02-18T19:47:34.339Z,63.86
2023-02-18T19:49:36.466Z,63.82
2023-02-18T19:51:38.396Z,64.23
2023-02-18T19:53:41.279Z,64.17
2023-02-18T19:55:43.204Z,64.02
2023-02-18T19:57:45.254Z,63.62
2023-02-18T19:59:47.449Z,63.86
2023-02-18T20:01:49.696Z,64.02
2023-02-18T20:03:51.635Z,64.11
2023-02-18T20:05:53.647Z,64.51
2023-02-18T20:07:55.733Z,64.60
2023-02-18T20:10:00.594Z,64.31
2023-02-18T20:12:03.863Z,64.98
2023-02-18T20:14:05.793Z,64.78
2023-02-18T20:16:09.156Z,65.06
2023-02-18T20:18:11.120Z,65.15
2023-02-18T20:20:13.102Z,65.36
2023-02-18T20:22:15.117Z,64.98
2023-02-18T20:24:17.724Z,65.13
2023-02-18T20:26:19.828Z,66.15
2023-02-18T20:28:21.923Z,66.23
2023-02-18T20:30:23.861Z,65.95
2023-02-18T20:32:26.034Z,65.77
2023-02-18T20:34:28.147Z,65.96
2023-02-18T20:36:30.581Z,65.99
2023-02-18T20:38:32.768Z,66.10
2023-02-18T20:40:34.706Z,66.05
2023-02-18T20:42:38.945Z,65.36
2023-02-18T20:44:41.003Z,65.61
2023-02-18T20:46:43.936Z,65.66
2023-02-18T20:48:47.702Z,65.16
2023-02-18T20:50:49.911Z,65.51
2023-02-18T20:52:52.767Z,65.38
2023-02-18T20:54:54.715Z,65.17
2023-02-18T20:56:56.937Z,65.05
2023-02-18T20:58:58.990Z,64.91
2023-02-18T21:01:05.723Z,65.52
2023-02-18T21:03:10.702Z,65.56
2023-02-18T21:05:12.702Z,65.07
2023-02-18T21:07:14.689Z,65.46
2023-02-18T21:09:18.232Z,65.48
2023-02-18T21:11:23.965Z,65.76
2023-02-18T21:13:26.541Z,66.11
2023-02-18T21:15:28.602Z,65.75
2023-02-18T21:17:30.554Z,65.51
2023-02-18T21:19:32.521Z,65.56
2023-02-18T21:21:36.127Z,65.02
2023-02-18T21:23:39.350Z,65.14
2023-02-18T21:25:41.417Z,64.97
2023-02-18T21:27:44.137Z,64.81
2023-02-18T21:29:46.562Z,64.81
2023-02-18T21:31:49.493Z,64.93
2023-02-18T21:33:52.221Z,64.83
2023-02-18T21:35:54.524Z,64.58
2023-02-18T21:37:56.454Z,64.55
2023-02-18T21:40:00.435Z,64.45
2023-02-18T21:42:04.374Z,64.61
2023-02-18T21:44:06.356Z,64.38
2023-02-18T21:46:10.847Z,64.52
2023-02-18T21:48:15.924Z,64.26
2023-02-18T21:50:18.044Z,64.92
2023-02-18T21:52:20.132Z,65.03
2023-02-18T21:54:26.644Z,65.06
2023-02-18T21:56:28.775Z,65.29
2023-02-18T21:58:30.745Z,65.56
2023-02-18T22:00:32.894Z,65.22
2023-02-18T22:02:35.661Z,64.78
2023-02-18T22:04:37.809Z,64.82
2023-02-18T22:06:39.975Z,64.92
2023-02-18T22:08:41.896Z,64.84
2023-02-18T22:10:43.978Z,64.95
2023-02-18T22:12:45.959Z,64.83
2023-02-18T22:14:48.141Z,64.63
2023-02-18T22:16:50.135Z,65.09
2023-02-18T22:18:52.151Z,64.74
2023-02-18T22:20:54.203Z,64.61
2023-02-18T22:22:56.337Z,65.14
2023-02-18T22:24:58.353Z,64.70
2023-02-18T22:27:02.770Z,64.51
2023-02-18T22:29:05.587Z,64.58
2023-02-18T22:31:09.617Z,64.41
2023-02-18T22:33:11.984Z,64.32
2023-02-18T22:35:16.581Z,64.26
2023-02-18T22:37:18.849Z,64.18
2023-02-18T22:39:20.739Z,64.24
2023-02-18T22:41:24.485Z,64.34
2023-02-18T22:43:26.409Z,64.36
2023-02-18T22:45:30.834Z,64.62
2023-02-18T22:47:35.181Z,64.74
2023-02-18T22:49:37.578Z,64.68
2023-02-18T22:51:41.983Z,64.77
2023-02-18T22:53:44.909Z,64.89
2023-02-18T22:55:47.016Z,64.84
2023-02-18T22:57:49.082Z,65.14
2023-02-18T22:59:53.408Z,64.86
2023-02-18T23:01:57.451Z,65.44
2023-02-18T23:04:05.506Z,65.02
2023-02-18T23:06:07.660Z,65.45
2023-02-18T23:08:09.668Z,65.06
2023-02-18T23:10:12.078Z,65.20
2023-02-18T23:12:14.046Z,65.23
2023-02-18T23:14:19.234Z,65.13
2023-02-18T23:16:22.735Z,64.79
2023-02-18T23:18:25.078Z,64.71
2023-02-18T23:20:30.178Z,64.80
2023-02-18T23:22:33.672Z,64.25
2023-02-18T23:24:38.212Z,64.57
2023-02-18T23:26:40.213Z,64.19
2023-02-18T23:28:45.395Z,63.94
2023-02-18T23:30:47.451Z,64.13
2023-02-18T23:32:49.560Z,64.31
2023-02-18T23:34:51.858Z,64.20
2023-02-18T23:36:53.920Z,64.47
2023-02-18T23:38:58.763Z,64.05
2023-02-18T23:41:02.702Z,64.22
2023-02-18T23:43:04.781Z,64.14
2023-02-18T23:45:07.291Z,64.33
2023-02-18T23:47:09.227Z,63.77
2023-02-18T23:49:16.205Z,64.17
2023-02-18T23:51:20.525Z,64.40
2023-02-18T23:53:25.921Z,64.41
2023-02-18T23:55:27.883Z,64.61
2023-02-18T23:57:32.463Z,64.06
2023-02-18T23:59:34.706Z,64.50
